createdAt,value
2023-04-03T00:00:56.509Z,26.80
2023-04-03T00:01:56.601Z,26.80
2023-04-03T00:02:56.686Z,26.79
2023-04-03T00:03:56.753Z,26.79
2023-04-03T00:04:56.816Z,26.79
2023-04-03T00:05:56.843Z,26.79
2023-04-03T00:06:56.986Z,26.79
2023-04-03T00:07:57.030Z,26.78
2023-04-03T00:08:57.099Z,26.80
2023-04-03T00:09:57.191Z,26.80
2023-04-03T00:10:57.241Z,26.79
2023-04-03T00:11:57.303Z,26.76
2023-04-03T00:12:57.406Z,26.79
2023-04-03T00:13:57.504Z,26.80
2023-04-03T00:14:57.552Z,26.79
2023-04-03T00:15:57.956Z,26.78
2023-04-03T00:16:57.756Z,26.80
2023-04-03T00:17:57.828Z,26.78
2023-04-03T00:18:57.905Z,26.78
2023-04-03T00:19:57.990Z,26.82
2023-04-03T00:20:58.093Z,26.80
2023-04-03T00:21:58.136Z,26.80
2023-04-03T00:22:58.238Z,26.80
2023-04-03T00:23:58.335Z,26.79
2023-04-03T00:24:58.416Z,26.80
2023-04-03T00:25:58.477Z,26.79
2023-04-03T00:26:58.558Z,26.80
2023-04-03T00:27:58.628Z,26.79
2023-04-03T00:28:58.693Z,26.79
2023-04-03T00:29:58.777Z,26.80
2023-04-03T00:30:58.887Z,26.79
2023-04-03T00:31:58.945Z,26.78
2023-04-03T00:32:59.104Z,26.79
2023-04-03T00:33:59.127Z,26.80
2023-04-03T00:34:59.223Z,26.82
2023-04-03T00:35:59.377Z,26.80
2023-04-03T00:36:59.436Z,26.78
2023-04-03T00:37:59.511Z,26.78
2023-04-03T00:38:59.537Z,26.79
2023-04-03T00:39:59.679Z,26.76
2023-04-03T00:40:59.753Z,26.80
2023-04-03T00:41:59.785Z,26.79
2023-04-03T00:42:59.895Z,26.79
2023-04-03T00:43:59.975Z,26.79
2023-04-03T00:45:00.047Z,26.80
2023-04-03T00:46:00.214Z,26.82
2023-04-03T00:47:00.230Z,26.79
2023-04-03T00:48:00.387Z,26.79
2023-04-03T00:49:00.387Z,26.78
2023-04-03T00:50:00.489Z,26.82
2023-04-03T00:51:00.549Z,26.79
2023-04-03T00:52:00.667Z,26.79
2023-04-03T00:53:00.689Z,26.79
2023-04-03T00:54:00.795Z,26.78
2023-04-03T00:55:00.896Z,26.79
2023-04-03T00:56:01.003Z,26.78
2023-04-03T00:57:01.169Z,26.80
2023-04-03T00:58:01.132Z,26.80
2023-04-03T00:59:01.245Z,26.79
2023-04-03T01:00:01.314Z,26.80
2023-04-03T01:01:01.382Z,26.79
2023-04-03T01:02:01.527Z,26.80
2023-04-03T01:03:01.611Z,26.78
2023-04-03T01:04:01.702Z,26.79
2023-04-03T01:05:01.718Z,26.79
2023-04-03T01:06:01.803Z,26.79
2023-04-03T01:07:01.867Z,26.79
2023-04-03T01:08:01.997Z,26.80
2023-04-03T01:09:02.079Z,26.80
2023-04-03T01:10:02.135Z,26.80
2023-04-03T01:11:02.227Z,26.78
2023-04-03T01:12:02.293Z,26.80
2023-04-03T01:13:02.364Z,26.80
2023-04-03T01:14:02.467Z,26.80
2023-04-03T01:15:02.569Z,26.79
2023-04-03T01:16:02.669Z,26.79
2023-04-03T01:17:02.771Z,26.79
2023-04-03T01:18:02.897Z,26.79
2023-04-03T01:19:02.901Z,26.80
2023-04-03T01:20:02.980Z,26.80
2023-04-03T01:21:03.057Z,26.80
2023-04-03T01:22:03.131Z,26.80
2023-04-03T01:23:03.208Z,26.80
2023-04-03T01:24:03.291Z,26.80
2023-04-03T01:25:03.375Z,26.82
2023-04-03T01:26:03.467Z,26.79
2023-04-03T01:27:03.516Z,26.79
2023-04-03T01:28:03.633Z,26.79
2023-04-03T01:29:03.735Z,26.80
2023-04-03T01:30:03.782Z,26.82
2023-04-03T01:31:03.881Z,26.82
2023-04-03T01:32:03.946Z,26.80
2023-04-03T01:33:04.020Z,26.80
2023-04-03T01:34:04.080Z,26.80
2023-04-03T01:35:04.189Z,26.80
2023-04-03T01:36:04.280Z,26.80
2023-04-03T01:37:04.321Z,26.79
2023-04-03T01:38:04.399Z,26.80
2023-04-03T01:39:04.490Z,26.82
2023-04-03T01:40:04.569Z,26.80
2023-04-03T01:41:04.626Z,26.78
2023-04-03T01:42:04.723Z,26.80
2023-04-03T01:43:04.785Z,26.80
2023-04-03T01:44:04.863Z,26.82
2023-04-03T01:45:04.917Z,26.82
2023-04-03T01:46:05.131Z,26.82
2023-04-03T01:47:05.098Z,26.82
2023-04-03T01:48:05.205Z,26.82
2023-04-03T01:49:05.265Z,26.79
2023-04-03T01:50:05.362Z,26.80
2023-04-03T01:51:05.480Z,26.80
2023-04-03T01:52:05.527Z,26.80
2023-04-03T01:53:05.620Z,26.83
2023-04-03T01:54:05.662Z,26.83
2023-04-03T01:55:05.768Z,26.85
2023-04-03T01:56:05.824Z,26.85
2023-04-03T01:57:05.945Z,26.85
2023-04-03T01:58:05.988Z,26.85
2023-04-03T01:59:06.068Z,26.86
2023-04-03T02:00:06.185Z,26.89
2023-04-03T02:01:06.280Z,26.87
2023-04-03T02:02:06.302Z,26.89
2023-04-03T02:03:06.428Z,26.87
2023-04-03T02:04:06.442Z,26.92
2023-04-03T02:05:06.540Z,26.90
2023-04-03T02:06:06.620Z,26.93
2023-04-03T02:07:06.702Z,26.94
2023-04-03T02:08:06.754Z,26.93
2023-04-03T02:09:06.876Z,26.97
2023-04-03T02:10:06.893Z,26.99
2023-04-03T02:11:06.984Z,27.00
2023-04-03T02:12:07.056Z,27.03
2023-04-03T02:13:07.141Z,27.03
2023-04-03T02:14:07.146Z,27.04
2023-04-03T02:15:07.200Z,27.03
2023-04-03T02:16:07.375Z,27.07
2023-04-03T02:17:07.341Z,27.09
2023-04-03T02:18:07.840Z,27.09
2023-04-03T02:19:07.499Z,27.10
2023-04-03T02:20:07.536Z,27.13
2023-04-03T02:21:07.610Z,27.15
2023-04-03T02:22:07.643Z,27.15
2023-04-03T02:23:07.739Z,27.14
2023-04-03T02:24:07.752Z,27.17
2023-04-03T02:25:07.861Z,27.18
2023-04-03T02:26:07.898Z,27.23
2023-04-03T02:27:07.980Z,27.21
2023-04-03T02:28:08.056Z,27.23
2023-04-03T02:29:08.137Z,27.23
2023-04-03T02:30:08.197Z,27.24
2023-04-03T02:31:08.222Z,27.24
2023-04-03T02:32:08.326Z,27.26
2023-04-03T02:33:08.317Z,27.30
2023-04-03T02:34:08.426Z,27.30
2023-04-03T02:35:08.463Z,27.30
2023-04-03T02:36:08.563Z,27.30
2023-04-03T02:37:08.600Z,27.34
2023-04-03T02:38:08.634Z,27.33
2023-04-03T02:39:08.705Z,27.36
2023-04-03T02:40:08.779Z,27.38
2023-04-03T02:41:08.828Z,27.36
2023-04-03T02:42:08.872Z,27.37
2023-04-03T02:43:08.918Z,27.38
2023-04-03T02:44:08.945Z,27.38
2023-04-03T02:45:09.019Z,27.41
2023-04-03T02:46:09.113Z,27.40
2023-04-03T02:47:09.107Z,27.40
2023-04-03T02:48:09.192Z,27.44
2023-04-03T02:49:09.212Z,27.43
2023-04-03T02:50:09.279Z,27.45
2023-04-03T02:51:09.299Z,27.45
2023-04-03T02:52:09.398Z,27.47
2023-04-03T02:53:09.440Z,27.48
2023-04-03T02:54:09.468Z,27.48
2023-04-03T02:55:09.506Z,27.47
2023-04-03T02:56:09.588Z,27.48
2023-04-03T02:57:09.620Z,27.51
2023-04-03T02:58:09.906Z,27.52
2023-04-03T02:59:09.682Z,27.51
2023-04-03T03:00:09.737Z,27.50
2023-04-03T03:01:09.871Z,27.52
2023-04-03T03:02:09.853Z,27.51
2023-04-03T03:03:09.879Z,27.54
2023-04-03T03:04:09.930Z,27.55
2023-04-03T03:05:10.081Z,27.55
2023-04-03T03:06:10.013Z,27.55
2023-04-03T03:07:10.098Z,27.55
2023-04-03T03:08:10.080Z,27.60
2023-04-03T03:09:10.109Z,27.60
2023-04-03T03:10:10.168Z,27.60
2023-04-03T03:11:10.219Z,27.60
2023-04-03T03:12:10.289Z,27.58
2023-04-03T03:13:10.264Z,27.61
2023-04-03T03:14:10.294Z,27.62
2023-04-03T03:15:10.392Z,27.61
2023-04-03T03:16:10.425Z,27.61
2023-04-03T03:17:10.418Z,27.64
2023-04-03T03:18:10.468Z,27.64
2023-04-03T03:19:10.532Z,27.64
2023-04-03T03:20:10.540Z,27.65
2023-04-03T03:21:10.609Z,27.65
2023-04-03T03:22:10.631Z,27.65
2023-04-03T03:23:10.656Z,27.65
2023-04-03T03:24:10.680Z,27.64
2023-04-03T03:25:10.717Z,27.68
2023-04-03T03:26:10.789Z,27.66
2023-04-03T03:27:10.804Z,27.66
2023-04-03T03:28:10.880Z,27.69
2023-04-03T03:29:10.895Z,27.69
2023-04-03T03:30:10.933Z,27.71
2023-04-03T03:31:10.980Z,27.71
2023-04-03T03:32:11.044Z,27.74
2023-04-03T03:33:11.033Z,27.72
2023-04-03T03:34:11.100Z,27.75
2023-04-03T03:35:11.142Z,27.75
2023-04-03T03:36:11.191Z,27.72
2023-04-03T03:37:11.179Z,27.77
2023-04-03T03:38:11.211Z,27.75
2023-04-03T03:39:11.247Z,27.77
2023-04-03T03:40:11.273Z,27.78
2023-04-03T03:41:11.293Z,27.77
2023-04-03T03:42:11.285Z,27.77
2023-04-03T03:43:11.328Z,27.78
2023-04-03T03:44:11.394Z,27.75
2023-04-03T03:45:11.405Z,27.81
2023-04-03T03:46:11.454Z,27.80
2023-04-03T03:47:11.496Z,27.80
2023-04-03T03:48:11.499Z,27.80
2023-04-03T03:49:11.579Z,27.80
2023-04-03T03:50:11.589Z,27.80
2023-04-03T03:51:11.626Z,27.81
2023-04-03T03:52:11.652Z,27.82
2023-04-03T03:53:11.705Z,27.85
2023-04-03T03:54:11.704Z,27.84
2023-04-03T03:55:11.756Z,27.82
2023-04-03T03:56:11.756Z,27.85
2023-04-03T03:57:11.854Z,27.84
2023-04-03T03:58:11.819Z,27.84
2023-04-03T03:59:11.867Z,27.85
2023-04-03T04:00:11.901Z,27.85
2023-04-03T04:01:11.931Z,27.87
2023-04-03T04:02:12.019Z,27.87
2023-04-03T04:03:12.080Z,27.85
2023-04-03T04:04:12.080Z,27.87
2023-04-03T04:05:12.069Z,27.85
2023-04-03T04:06:12.106Z,27.87
2023-04-03T04:07:12.161Z,27.87
2023-04-03T04:08:12.191Z,27.87
2023-04-03T04:09:12.199Z,27.87
2023-04-03T04:10:12.250Z,27.88
2023-04-03T04:11:12.303Z,27.89
2023-04-03T04:12:12.318Z,27.91
2023-04-03T04:13:12.372Z,27.91
2023-04-03T04:14:12.385Z,27.91
2023-04-03T04:15:12.394Z,27.92
2023-04-03T04:16:12.503Z,27.92
2023-04-03T04:17:12.505Z,27.92
2023-04-03T04:18:12.543Z,27.91
2023-04-03T04:19:12.573Z,27.91
2023-04-03T04:20:12.637Z,27.92
2023-04-03T04:21:12.676Z,27.92
2023-04-03T04:22:12.750Z,27.94
2023-04-03T04:23:12.772Z,27.92
2023-04-03T04:24:12.843Z,27.94
2023-04-03T04:25:12.905Z,27.95
2023-04-03T04:26:12.965Z,27.94
2023-04-03T04:27:13.022Z,27.94
2023-04-03T04:28:13.100Z,27.95
2023-04-03T04:29:13.123Z,27.95
2023-04-03T04:30:13.154Z,27.96
2023-04-03T04:31:13.283Z,27.98
2023-04-03T04:32:13.302Z,27.96
2023-04-03T04:33:13.384Z,27.98
2023-04-03T04:34:13.452Z,27.99
2023-04-03T04:35:16.146Z,27.96
2023-04-03T04:36:13.550Z,27.98
2023-04-03T04:37:13.509Z,27.96
2023-04-03T04:38:13.511Z,28.01
2023-04-03T04:39:13.570Z,27.98
2023-04-03T04:40:13.588Z,27.98
2023-04-03T04:41:13.578Z,28.01
2023-04-03T04:42:14.663Z,27.99
2023-04-03T04:43:13.589Z,28.01
2023-04-03T04:44:13.618Z,28.01
2023-04-03T04:45:13.611Z,28.02
2023-04-03T04:46:13.746Z,27.99
2023-04-03T04:47:13.641Z,28.01
2023-04-03T04:48:13.664Z,28.01
2023-04-03T04:49:13.665Z,28.01
2023-04-03T04:50:13.686Z,27.99
2023-04-03T04:51:13.732Z,28.01
2023-04-03T04:52:13.726Z,28.01
2023-04-03T04:53:13.709Z,28.01
2023-04-03T04:54:13.756Z,28.01
2023-04-03T04:55:13.827Z,28.01
2023-04-03T04:56:13.790Z,27.99
2023-04-03T04:57:13.809Z,27.99
2023-04-03T04:58:13.822Z,28.02
2023-04-03T04:59:13.830Z,28.02
2023-04-03T05:00:13.858Z,28.02
2023-04-03T05:01:21.128Z,27.99
2023-04-03T05:02:13.894Z,27.99
2023-04-03T05:03:13.908Z,28.01
2023-04-03T05:04:14.024Z,28.01
2023-04-03T05:05:14.012Z,28.02
2023-04-03T05:06:14.009Z,27.99
2023-04-03T05:07:14.034Z,27.99
2023-04-03T05:08:14.017Z,27.99
2023-04-03T05:09:14.018Z,27.99
2023-04-03T05:10:14.073Z,27.99
2023-04-03T05:11:14.095Z,27.98
2023-04-03T05:12:14.130Z,27.98
2023-04-03T05:13:14.132Z,27.99
2023-04-03T05:14:14.085Z,27.98
2023-04-03T05:15:14.141Z,27.98
2023-04-03T05:16:14.220Z,27.98
2023-04-03T05:17:14.152Z,27.99
2023-04-03T05:18:14.179Z,27.96
2023-04-03T05:19:14.177Z,27.95
2023-04-03T05:20:14.182Z,27.95
2023-04-03T05:21:14.224Z,27.96
2023-04-03T05:22:14.238Z,27.95
2023-04-03T05:23:14.259Z,27.95
2023-04-03T05:24:14.279Z,27.94
2023-04-03T05:25:14.284Z,27.94
2023-04-03T05:26:14.319Z,27.95
2023-04-03T05:27:14.296Z,27.94
2023-04-03T05:28:14.302Z,27.91
2023-04-03T05:29:14.350Z,27.94
2023-04-03T05:30:14.354Z,27.95
2023-04-03T05:31:14.433Z,27.92
2023-04-03T05:32:14.407Z,27.92
2023-04-03T05:33:14.393Z,27.94
2023-04-03T05:34:14.420Z,27.94
2023-04-03T05:35:14.441Z,27.91
2023-04-03T05:36:14.463Z,27.91
2023-04-03T05:37:14.463Z,27.91
2023-04-03T05:38:14.494Z,27.91
2023-04-03T05:39:14.473Z,27.91
2023-04-03T05:40:15.017Z,27.91
2023-04-03T05:41:14.529Z,27.88
2023-04-03T05:42:14.577Z,27.88
2023-04-03T05:43:14.537Z,27.88
2023-04-03T05:44:14.554Z,27.88
2023-04-03T05:45:14.556Z,27.88
2023-04-03T05:46:21.736Z,27.87
2023-04-03T05:47:14.597Z,27.87
2023-04-03T05:48:14.719Z,27.87
2023-04-03T05:49:14.660Z,27.85
2023-04-03T05:50:14.679Z,27.84
2023-04-03T05:51:14.720Z,27.84
2023-04-03T05:52:14.713Z,27.84
2023-04-03T05:53:14.720Z,27.87
2023-04-03T05:54:14.764Z,27.84
2023-04-03T05:55:14.775Z,27.87
2023-04-03T05:56:14.804Z,27.85
2023-04-03T05:57:14.859Z,27.85
2023-04-03T05:58:14.835Z,27.85
2023-04-03T05:59:14.841Z,27.85
2023-04-03T06:00:14.864Z,27.84
2023-04-03T06:01:14.888Z,27.84
2023-04-03T06:02:14.881Z,27.85
2023-04-03T06:03:15.101Z,27.84
2023-04-03T06:04:15.111Z,27.85
2023-04-03T06:05:14.947Z,27.84
2023-04-03T06:06:14.959Z,27.84
2023-04-03T06:07:14.993Z,27.81
2023-04-03T06:08:14.989Z,27.85
2023-04-03T06:09:15.010Z,27.84
2023-04-03T06:10:15.040Z,27.84
2023-04-03T06:11:15.069Z,27.85
2023-04-03T06:12:15.069Z,27.82
2023-04-03T06:13:15.059Z,27.85
2023-04-03T06:14:15.066Z,27.85
2023-04-03T06:15:15.111Z,27.84
2023-04-03T06:16:15.140Z,27.85
2023-04-03T06:17:15.265Z,27.84
2023-04-03T06:18:15.158Z,27.85
2023-04-03T06:19:15.194Z,27.85
2023-04-03T06:20:15.197Z,27.84
2023-04-03T06:21:15.229Z,27.84
2023-04-03T06:22:15.230Z,27.82
2023-04-03T06:23:15.244Z,27.84
2023-04-03T06:24:15.237Z,27.84
2023-04-03T06:25:15.252Z,27.84
2023-04-03T06:26:15.282Z,27.84
2023-04-03T06:27:15.303Z,27.85
2023-04-03T06:28:15.306Z,27.84
2023-04-03T06:29:15.345Z,27.85
2023-04-03T06:30:15.367Z,27.84
2023-04-03T06:31:15.385Z,27.85
2023-04-03T06:32:15.592Z,27.84
2023-04-03T06:33:15.408Z,27.85
2023-04-03T06:34:15.425Z,27.81
2023-04-03T06:35:15.421Z,27.85
2023-04-03T06:36:15.466Z,27.84
2023-04-03T06:37:15.478Z,27.82
2023-04-03T06:38:15.484Z,27.82
2023-04-03T06:39:15.518Z,27.85
2023-04-03T06:40:15.520Z,27.87
2023-04-03T06:41:15.568Z,27.84
2023-04-03T06:42:15.562Z,27.82
2023-04-03T06:43:15.581Z,27.84
2023-04-03T06:44:15.585Z,27.85
2023-04-03T06:45:15.625Z,27.82
2023-04-03T06:46:15.658Z,27.84
2023-04-03T06:47:15.665Z,27.82
2023-04-03T06:48:15.730Z,27.84
2023-04-03T06:49:15.720Z,27.85
2023-04-03T06:50:15.846Z,27.85
2023-04-03T06:51:15.780Z,27.82
2023-04-03T06:52:15.812Z,27.85
2023-04-03T06:53:15.878Z,27.84
2023-04-03T06:54:15.908Z,27.82
2023-04-03T06:55:15.931Z,27.81
2023-04-03T06:56:15.967Z,27.82
2023-04-03T06:57:16.055Z,27.84
2023-04-03T06:58:16.038Z,27.85
2023-04-03T06:59:16.606Z,27.84
2023-04-03T07:00:16.272Z,27.81
2023-04-03T07:01:16.164Z,27.85
2023-04-03T07:02:16.211Z,27.84
2023-04-03T07:03:16.233Z,27.85
2023-04-03T07:04:16.313Z,27.84
2023-04-03T07:05:16.334Z,27.84
2023-04-03T07:06:16.346Z,27.84
2023-04-03T07:07:16.389Z,27.84
2023-04-03T07:08:16.442Z,27.84
2023-04-03T07:09:16.466Z,27.85
2023-04-03T07:10:16.518Z,27.85
2023-04-03T07:11:16.559Z,27.84
2023-04-03T07:12:16.660Z,27.84
2023-04-03T07:13:16.678Z,27.84
2023-04-03T07:14:16.711Z,27.82
2023-04-03T07:15:16.955Z,27.87
2023-04-03T07:16:16.866Z,27.84
2023-04-03T07:17:16.865Z,27.87
2023-04-03T07:18:16.943Z,27.85
2023-04-03T07:19:16.943Z,27.87
2023-04-03T07:20:17.000Z,27.85
2023-04-03T07:21:17.030Z,27.85
2023-04-03T07:22:17.085Z,27.88
2023-04-03T07:23:17.123Z,27.84
2023-04-03T07:24:17.194Z,27.88
2023-04-03T07:25:17.168Z,27.87
2023-04-03T07:26:17.199Z,27.87
2023-04-03T07:27:17.247Z,27.85
2023-04-03T07:28:17.320Z,27.88
2023-04-03T07:29:17.340Z,27.87
2023-04-03T07:30:17.388Z,27.87
2023-04-03T07:31:17.493Z,27.88
2023-04-03T07:32:17.499Z,27.87
2023-04-03T07:33:17.482Z,27.88
2023-04-03T07:34:17.565Z,27.89
2023-04-03T07:35:17.619Z,27.88
2023-04-03T07:36:17.721Z,27.91
2023-04-03T07:37:17.713Z,27.89
2023-04-03T07:38:17.755Z,27.88
2023-04-03T07:39:17.770Z,27.88
2023-04-03T07:40:19.053Z,27.89
2023-04-03T07:41:17.849Z,27.87
2023-04-03T07:42:17.910Z,27.88
2023-04-03T07:43:17.960Z,27.89
2023-04-03T07:44:18.006Z,27.89
2023-04-03T07:45:18.046Z,27.91
2023-04-03T07:46:18.227Z,27.91
2023-04-03T07:47:18.173Z,27.91
2023-04-03T07:48:18.241Z,27.91
2023-04-03T07:49:18.294Z,27.91
2023-04-03T07:50:18.370Z,27.89
2023-04-03T07:51:18.444Z,27.92
2023-04-03T07:52:18.456Z,27.91
2023-04-03T07:53:18.480Z,27.91
2023-04-03T07:54:18.538Z,27.91
2023-04-03T07:55:18.541Z,27.92
2023-04-03T07:56:18.570Z,27.91
2023-04-03T07:57:18.706Z,27.92
2023-04-03T07:58:18.658Z,27.94
2023-04-03T07:59:18.686Z,27.92
2023-04-03T08:00:18.731Z,27.94
2023-04-03T08:01:18.753Z,27.95
2023-04-03T08:02:18.822Z,27.95
2023-04-03T08:03:19.005Z,27.94
2023-04-03T08:04:18.899Z,27.95
2023-04-03T08:05:18.925Z,27.95
2023-04-03T08:06:26.215Z,27.95
2023-04-03T08:07:20.043Z,27.96
2023-04-03T08:08:20.047Z,27.94
2023-04-03T08:09:19.039Z,27.96
2023-04-03T08:10:19.060Z,27.95
2023-04-03T08:11:19.100Z,27.94
2023-04-03T08:12:19.130Z,27.96
2023-04-03T08:13:19.178Z,27.95
2023-04-03T08:14:19.224Z,27.96
2023-04-03T08:15:19.296Z,27.98
2023-04-03T08:16:19.377Z,27.95
2023-04-03T08:17:19.402Z,27.95
2023-04-03T08:18:19.439Z,27.98
2023-04-03T08:19:26.076Z,27.95
2023-04-03T08:20:20.497Z,27.96
2023-04-03T08:21:19.476Z,27.96
2023-04-03T08:22:19.531Z,27.95
2023-04-03T08:23:20.215Z,27.95
2023-04-03T08:24:19.549Z,27.98
2023-04-03T08:25:19.542Z,27.94
2023-04-03T08:26:19.560Z,27.96
2023-04-03T08:27:19.589Z,27.96
2023-04-03T08:28:19.585Z,27.96
2023-04-03T08:29:19.612Z,27.96
2023-04-03T08:30:19.608Z,27.96
2023-04-03T08:31:19.682Z,27.95
2023-04-03T08:32:19.631Z,27.95
2023-04-03T08:33:19.673Z,27.99
2023-04-03T08:34:19.660Z,27.99
2023-04-03T08:35:19.679Z,27.96
2023-04-03T08:36:19.791Z,27.98
2023-04-03T08:37:19.762Z,27.98
2023-04-03T08:38:19.841Z,28.02
2023-04-03T08:39:19.854Z,27.99
2023-04-03T08:40:19.905Z,27.99
2023-04-03T08:41:19.979Z,28.02
2023-04-03T08:42:19.982Z,27.99
2023-04-03T08:43:20.084Z,28.01
2023-04-03T08:44:20.194Z,27.99
2023-04-03T08:45:20.304Z,28.01
2023-04-03T08:46:20.412Z,28.01
2023-04-03T08:47:20.385Z,28.02
2023-04-03T08:48:20.468Z,28.03
2023-04-03T08:49:20.546Z,28.01
2023-04-03T08:50:20.636Z,28.01
2023-04-03T08:51:20.581Z,28.02
2023-04-03T08:52:20.615Z,28.01
2023-04-03T08:53:20.755Z,28.03
2023-04-03T08:54:20.708Z,28.05
2023-04-03T08:55:20.808Z,27.99
2023-04-03T08:56:20.741Z,28.03
2023-04-03T08:57:20.880Z,28.03
2023-04-03T08:58:20.919Z,28.03
2023-04-03T08:59:20.946Z,28.03
2023-04-03T09:00:21.027Z,28.02
2023-04-03T09:01:21.069Z,28.09
2023-04-03T09:02:21.123Z,28.08
2023-04-03T09:03:21.256Z,28.08
2023-04-03T09:04:21.262Z,28.06
2023-04-03T09:05:22.241Z,28.08
2023-04-03T09:06:21.317Z,28.06
2023-04-03T09:07:21.377Z,28.08
2023-04-03T09:08:21.405Z,28.05
2023-04-03T09:09:21.423Z,28.02
2023-04-03T09:10:21.472Z,28.06
2023-04-03T09:11:21.618Z,28.05
2023-04-03T09:12:21.572Z,28.05
2023-04-03T09:13:21.643Z,28.03
2023-04-03T09:14:21.674Z,28.02
2023-04-03T09:15:31.294Z,28.03
2023-04-03T09:16:22.766Z,28.03
2023-04-03T09:17:21.832Z,28.02
2023-04-03T09:18:21.798Z,28.02
2023-04-03T09:19:21.790Z,28.01
2023-04-03T09:20:21.790Z,28.02
2023-04-03T09:21:21.780Z,28.02
2023-04-03T09:22:21.935Z,28.01
2023-04-03T09:23:21.849Z,28.03
2023-04-03T09:24:21.850Z,27.98
2023-04-03T09:25:21.844Z,27.99
2023-04-03T09:26:21.878Z,27.99
2023-04-03T09:27:21.930Z,27.99
2023-04-03T09:28:21.927Z,27.98
2023-04-03T09:29:21.923Z,27.98
2023-04-03T09:30:21.950Z,28.01
2023-04-03T09:31:21.988Z,27.98
2023-04-03T09:32:21.924Z,27.99
2023-04-03T09:33:21.983Z,27.98
2023-04-03T09:34:21.975Z,27.98
2023-04-03T09:35:27.428Z,27.96
2023-04-03T09:36:23.037Z,27.99
2023-04-03T09:37:22.049Z,27.99
2023-04-03T09:38:22.005Z,27.98
2023-04-03T09:39:22.054Z,27.98
2023-04-03T09:40:22.069Z,27.98
2023-04-03T09:41:22.083Z,27.96
2023-04-03T09:42:22.077Z,27.98
2023-04-03T09:43:22.209Z,27.99
2023-04-03T09:44:22.118Z,27.98
2023-04-03T09:45:22.143Z,27.98
2023-04-03T09:46:22.257Z,27.98
2023-04-03T09:47:22.125Z,27.99
2023-04-03T09:48:22.323Z,27.96
2023-04-03T09:49:22.193Z,27.99
2023-04-03T09:50:22.198Z,27.99
2023-04-03T09:51:22.243Z,27.99
2023-04-03T09:52:22.258Z,27.98
2023-04-03T09:53:22.239Z,27.99
2023-04-03T09:54:22.267Z,28.01
2023-04-03T09:55:22.337Z,27.99
2023-04-03T09:56:22.347Z,27.99
2023-04-03T09:57:22.415Z,28.01
2023-04-03T09:58:22.407Z,27.99
2023-04-03T09:59:22.483Z,27.99
2023-04-03T10:00:22.407Z,27.99
2023-04-03T10:01:22.519Z,28.01
2023-04-03T10:02:22.561Z,28.01
2023-04-03T10:03:22.600Z,28.02
2023-04-03T10:04:22.657Z,27.99
2023-04-03T10:05:22.616Z,28.02
2023-04-03T10:06:22.681Z,28.01
2023-04-03T10:07:22.710Z,27.99
2023-04-03T10:08:22.830Z,28.01
2023-04-03T10:09:22.948Z,28.05
2023-04-03T10:10:22.984Z,28.02
2023-04-03T10:11:23.047Z,28.03
2023-04-03T10:12:23.059Z,28.02
2023-04-03T10:13:23.115Z,28.05
2023-04-03T10:14:23.162Z,28.03
2023-04-03T10:15:23.258Z,28.02
2023-04-03T10:16:23.310Z,28.05
2023-04-03T10:17:23.275Z,28.02
2023-04-03T10:18:24.611Z,28.03
2023-04-03T10:19:23.352Z,28.02
2023-04-03T10:20:24.308Z,28.05
2023-04-03T10:21:27.461Z,28.05
2023-04-03T10:22:23.442Z,28.05
2023-04-03T10:23:23.517Z,28.03
2023-04-03T10:24:23.498Z,28.05
2023-04-03T10:25:23.497Z,28.03
2023-04-03T10:26:23.534Z,28.05
2023-04-03T10:27:23.544Z,28.06
2023-04-03T10:28:23.533Z,28.05
2023-04-03T10:29:23.588Z,28.03
2023-04-03T10:30:23.548Z,28.06
2023-04-03T10:31:23.654Z,28.03
2023-04-03T10:32:23.614Z,28.06
2023-04-03T10:33:23.623Z,28.05
2023-04-03T10:34:23.620Z,28.03
2023-04-03T10:35:23.638Z,28.08
2023-04-03T10:36:23.661Z,28.08
2023-04-03T10:37:23.675Z,28.05
2023-04-03T10:38:23.702Z,28.05
2023-04-03T10:39:23.702Z,28.06
2023-04-03T10:40:23.734Z,28.06
2023-04-03T10:41:23.741Z,28.03
2023-04-03T10:42:23.774Z,28.05
2023-04-03T10:43:23.805Z,28.06
2023-04-03T10:44:23.794Z,28.08
2023-04-03T10:45:23.849Z,28.05
2023-04-03T10:46:23.867Z,28.08
2023-04-03T10:47:23.947Z,28.08
2023-04-03T10:48:23.849Z,28.06
2023-04-03T10:49:23.850Z,28.08
2023-04-03T10:50:23.887Z,28.05
2023-04-03T10:51:23.897Z,28.06
2023-04-03T10:52:23.953Z,28.05
2023-04-03T10:53:23.981Z,28.06
2023-04-03T10:54:24.031Z,28.02
2023-04-03T10:55:24.697Z,28.06
2023-04-03T10:56:24.099Z,28.06
2023-04-03T10:57:24.166Z,28.05
2023-04-03T10:58:24.206Z,28.05
2023-04-03T10:59:24.180Z,28.05
2023-04-03T11:00:24.250Z,28.06
2023-04-03T11:01:24.323Z,28.02
2023-04-03T11:02:24.439Z,28.06
2023-04-03T11:03:24.552Z,28.06
2023-04-03T11:04:24.430Z,28.06
2023-04-03T11:05:24.476Z,28.08
2023-04-03T11:06:24.493Z,28.06
2023-04-03T11:07:24.520Z,28.06
2023-04-03T11:08:24.609Z,28.05
2023-04-03T11:09:24.583Z,28.05
2023-04-03T11:10:24.659Z,28.06
2023-04-03T11:11:24.704Z,28.05
2023-04-03T11:12:24.730Z,28.05
2023-04-03T11:13:24.739Z,28.06
2023-04-03T11:14:24.770Z,28.06
2023-04-03T11:15:24.806Z,28.06
2023-04-03T11:16:24.904Z,28.02
2023-04-03T11:17:24.869Z,28.05
2023-04-03T11:18:24.889Z,28.03
2023-04-03T11:19:25.098Z,28.02
2023-04-03T11:20:24.981Z,28.05
2023-04-03T11:21:24.985Z,28.02
2023-04-03T11:22:25.077Z,28.02
2023-04-03T11:23:25.623Z,28.03
2023-04-03T11:24:25.086Z,27.99
2023-04-03T11:25:25.136Z,28.02
2023-04-03T11:26:25.128Z,28.02
2023-04-03T11:27:25.193Z,28.03
2023-04-03T11:28:25.241Z,28.01
2023-04-03T11:29:34.976Z,28.03
2023-04-03T11:30:26.312Z,28.01
2023-04-03T11:31:25.324Z,28.02
2023-04-03T11:32:25.312Z,28.03
2023-04-03T11:33:25.321Z,28.01
2023-04-03T11:34:25.331Z,28.02
2023-04-03T11:35:25.428Z,28.01
2023-04-03T11:36:27.683Z,27.99
2023-04-03T11:37:26.373Z,28.02
2023-04-03T11:38:25.346Z,27.99
2023-04-03T11:39:25.384Z,28.01
2023-04-03T11:40:25.405Z,28.02
2023-04-03T11:41:25.399Z,27.98
2023-04-03T11:42:25.438Z,28.01
2023-04-03T11:43:25.411Z,27.99
2023-04-03T11:44:25.433Z,27.99
2023-04-03T11:45:25.445Z,27.99
2023-04-03T11:46:25.522Z,27.98
2023-04-03T11:47:25.503Z,27.99
2023-04-03T11:48:25.564Z,28.01
2023-04-03T11:49:25.459Z,28.01
2023-04-03T11:50:25.513Z,28.02
2023-04-03T11:51:25.575Z,28.01
2023-04-03T11:52:25.524Z,27.99
2023-04-03T11:53:25.518Z,28.01
2023-04-03T11:54:30.021Z,27.99
2023-04-03T11:55:26.530Z,27.99
2023-04-03T11:56:25.579Z,27.99
2023-04-03T11:57:25.591Z,27.99
2023-04-03T11:58:25.568Z,28.02
2023-04-03T11:59:25.570Z,27.98
2023-04-03T12:00:25.602Z,27.98
2023-04-03T12:01:26.697Z,27.98
2023-04-03T12:02:25.732Z,27.99
2023-04-03T12:03:25.676Z,27.99
2023-04-03T12:04:25.745Z,27.99
2023-04-03T12:05:25.615Z,28.01
2023-04-03T12:06:25.641Z,27.99
2023-04-03T12:07:25.752Z,28.01
2023-04-03T12:08:25.691Z,27.99
2023-04-03T12:09:25.710Z,27.99
2023-04-03T12:10:32.264Z,28.01
2023-04-03T12:11:26.742Z,27.99
2023-04-03T12:12:25.761Z,28.01
2023-04-03T12:13:25.763Z,28.01
2023-04-03T12:14:25.826Z,28.01
2023-04-03T12:15:25.816Z,28.01
2023-04-03T12:16:25.865Z,28.02
2023-04-03T12:17:25.829Z,28.01
2023-04-03T12:18:25.862Z,28.03
2023-04-03T12:19:35.445Z,28.01
2023-04-03T12:20:26.862Z,27.99
2023-04-03T12:21:25.882Z,27.99
2023-04-03T12:22:25.903Z,28.01
2023-04-03T12:23:25.995Z,27.99
2023-04-03T12:24:25.943Z,27.98
2023-04-03T12:25:25.901Z,28.01
2023-04-03T12:26:28.299Z,27.99
2023-04-03T12:27:26.956Z,27.98
2023-04-03T12:28:25.976Z,28.01
2023-04-03T12:29:25.989Z,27.99
2023-04-03T12:30:25.970Z,27.99
2023-04-03T12:31:26.087Z,27.99
2023-04-03T12:32:26.056Z,27.98
2023-04-03T12:33:26.158Z,27.99
2023-04-03T12:34:26.079Z,28.01
2023-04-03T12:35:26.101Z,27.96
2023-04-03T12:36:26.165Z,28.01
2023-04-03T12:37:26.122Z,27.98
2023-04-03T12:38:26.131Z,27.99
2023-04-03T12:39:26.156Z,27.96
2023-04-03T12:40:26.169Z,28.01
2023-04-03T12:41:26.222Z,27.96
2023-04-03T12:42:26.246Z,28.01
2023-04-03T12:43:26.261Z,27.99
2023-04-03T12:44:26.283Z,27.95
2023-04-03T12:45:26.372Z,27.98
2023-04-03T12:46:26.431Z,27.96
2023-04-03T12:47:26.485Z,27.96
2023-04-03T12:48:26.425Z,27.96
2023-04-03T12:49:26.491Z,27.96
2023-04-03T12:50:26.535Z,27.96
2023-04-03T12:51:26.538Z,27.96
2023-04-03T12:52:26.554Z,27.96
2023-04-03T12:53:26.627Z,27.95